Time;durP1;ratioP1;P1;durP2;ratioP2;P2;SDS_P1;SDS_P2;PMS_P1;PMS_P2;Temp;Humidity;BMP_temperature;BMP_pressure;BME280_temperature;BME280_humidity;BME280_pressure;Samples;Min_cycle;Max_cycle;Signal;HPM_P1;HPM_P2
2022/02/01 00:00:28;;;;;;;3.30;1.63;;;;;;;3.31;100.00;98177.31;5106060;28;20266;-69
2022/02/01 00:02:59;;;;;;;2.10;1.90;;;;;;;3.38;100.00;98176.19;5104924;28;20332;-69
2022/02/01 00:05:33;;;;;;;5.07;1.70;;;;;;;3.41;100.00;98186.50;5099891;28;20231;-68
2022/02/01 00:08:09;;;;;;;4.33;1.67;;;;;;;3.41;100.00;98176.06;5103986;28;20582;-69
2022/02/01 00:10:45;;;;;;;4.37;2.00;;;;;;;3.38;100.00;98168.34;5106319;28;20219;-68
2022/02/01 00:13:19;;;;;;;2.07;1.83;;;;;;;3.40;100.00;98186.56;5102972;28;20203;-69
2022/02/01 00:18:46;;;;;;;3.00;1.70;;;;;;;3.31;100.00;98171.28;5085255;28;20221;-68
2022/02/01 00:35:20;;;;;;;4.07;2.00;;;;;;;3.26;100.00;98218.47;5100908;28;20294;-68
2022/02/01 00:37:57;;;;;;;3.40;1.80;;;;;;;3.22;100.00;98219.50;5105549;28;20707;-68
2022/02/01 00:40:24;;;;;;;3.47;1.77;;;;;;;3.25;100.00;98236.81;5105231;28;20213;-68
2022/02/01 00:42:50;;;;;;;6.40;2.03;;;;;;;3.26;100.00;98231.53;5101879;28;20241;-68
2022/02/01 00:45:17;;;;;;;4.00;1.63;;;;;;;3.25;100.00;98239.41;5102781;28;20222;-68
2022/02/01 00:47:44;;;;;;;4.83;1.60;;;;;;;3.27;100.00;98243.69;5104313;28;20213;-68
2022/02/01 00:50:13;;;;;;;1.97;1.47;;;;;;;3.27;100.00;98238.44;5105629;28;20679;-68
2022/02/01 00:52:39;;;;;;;3.20;1.67;;;;;;;3.23;100.00;98236.84;5101734;28;20226;-68
2022/02/01 00:55:09;;;;;;;3.53;1.23;;;;;;;3.11;100.00;98253.00;5102183;28;20272;-69
2022/02/01 00:57:35;;;;;;;3.93;1.40;;;;;;;2.95;100.00;98254.47;5105911;28;20221;-69
2022/02/01 01:00:02;;;;;;;2.00;1.20;;;;;;;2.76;100.00;98250.00;5105264;28;20220;-68
2022/02/01 01:02:28;;;;;;;3.97;1.60;;;;;;;2.62;100.00;98257.44;5101508;28;20711;-69
2022/02/01 01:04:55;;;;;;;4.03;1.87;;;;;;;2.52;100.00;98256.94;5102094;28;20591;-69
2022/02/01 01:07:21;;;;;;;2.83;1.77;;;;;;;2.48;100.00;98259.72;5105652;28;20582;-69
2022/02/01 01:09:48;;;;;;;5.30;2.10;;;;;;;2.44;100.00;98269.41;5105368;28;20329;-69
2022/02/01 01:12:17;;;;;;;3.63;2.40;;;;;;;2.44;100.00;98276.38;5101944;28;20215;-68
2022/02/01 01:15:08;;;;;;;4.53;2.00;;;;;;;2.42;100.00;98266.00;5103840;28;20245;-68
2022/02/01 01:17:55;;;;;;;5.20;2.20;;;;;;;2.41;100.00;98269.53;5098588;28;20639;-68
2022/02/01 01:45:05;;;;;;;4.80;2.00;;;;;;;2.81;100.00;98308.94;5096337;28;20729;-68
2022/02/01 01:53:14;;;;;;;5.53;1.80;;;;;;;2.93;100.00;98305.88;5109197;28;20221;-68
2022/02/01 01:55:42;;;;;;;7.33;2.03;;;;;;;2.92;100.00;98311.16;5103604;28;20294;-68
2022/02/01 01:58:10;;;;;;;5.27;2.33;;;;;;;2.93;100.00;98311.09;5106766;28;20227;-68
2022/02/01 02:03:29;;;;;;;5.27;1.93;;;;;;;2.89;100.00;98314.72;5090859;28;20242;-69
2022/02/01 02:05:55;;;;;;;7.13;2.17;;;;;;;2.85;100.00;98339.25;5097897;28;20293;-69
2022/02/01 02:08:22;;;;;;;5.07;2.10;;;;;;;2.83;100.00;98325.41;5100711;28;20215;-69
2022/02/01 02:10:57;;;;;;;4.70;2.27;;;;;;;2.82;100.00;98328.91;5098789;28;20211;-69
2022/02/01 02:16:09;;;;;;;6.63;2.43;;;;;;;2.78;100.00;98322.09;5108555;28;20245;-69
2022/02/01 02:18:36;;;;;;;4.97;2.30;;;;;;;2.79;100.00;98322.94;5108995;28;20274;-69
2022/02/01 02:21:05;;;;;;;6.07;2.80;;;;;;;2.72;100.00;98322.31;5105463;28;20219;-69
2022/02/01 02:23:32;;;;;;;6.23;2.00;;;;;;;2.75;100.00;98322.19;5104852;28;20238;-69
2022/02/01 02:26:01;;;;;;;5.23;2.13;;;;;;;2.72;100.00;98343.19;5100296;28;20214;-69
2022/02/01 02:28:28;;;;;;;7.93;2.17;;;;;;;2.75;100.00;98363.13;5108672;28;20218;-68
2022/02/01 02:30:54;;;;;;;6.40;2.40;;;;;;;2.76;100.00;98368.25;5104491;28;20672;-69
2022/02/01 02:33:22;;;;;;;8.10;2.37;;;;;;;2.78;100.00;98374.31;5096896;28;20210;-69
2022/02/01 02:35:52;;;;;;;8.40;2.73;;;;;;;2.76;100.00;98373.47;5091432;28;20225;-69
2022/02/01 02:38:27;;;;;;;6.90;2.80;;;;;;;2.77;100.00;98382.19;5108429;28;20211;-69
2022/02/01 02:41:07;;;;;;;6.33;2.70;;;;;;;2.75;100.00;98384.84;5103013;28;20216;-68
2022/02/01 02:46:23;;;;;;;8.17;2.73;;;;;;;2.75;100.00;98374.41;5107352;28;20251;-69
2022/02/01 02:48:49;;;;;;;9.53;2.80;;;;;;;2.77;100.00;98390.88;5104479;28;20214;-69
2022/02/01 02:51:16;;;;;;;4.13;2.00;;;;;;;2.84;100.00;98396.72;5105965;28;20223;-69
2022/02/01 02:53:44;;;;;;;8.43;3.00;;;;;;;2.86;100.00;98403.59;5108068;28;20586;-69
2022/02/01 02:56:10;;;;;;;8.17;2.80;;;;;;;2.84;100.00;98410.63;5105996;28;20668;-69
2022/02/01 02:58:37;;;;;;;7.83;2.47;;;;;;;2.92;100.00;98413.81;5102545;28;20215;-69
2022/02/01 03:01:03;;;;;;;6.10;2.60;;;;;;;2.92;100.00;98410.34;5105420;28;20214;-69
2022/02/01 03:03:30;;;;;;;7.90;2.60;;;;;;;2.87;100.00;98413.13;5107615;28;20245;-68
2022/02/01 03:05:56;;;;;;;12.13;3.13;;;;;;;2.84;100.00;98405.41;5107374;28;20210;-68
2022/02/01 03:08:24;;;;;;;8.57;2.47;;;;;;;2.80;100.00;98406.41;5104189;28;20211;-68
2022/02/01 03:10:52;;;;;;;7.57;2.80;;;;;;;2.81;100.00;98409.88;5104766;28;20211;-68
2022/02/01 03:13:23;;;;;;;13.30;2.77;;;;;;;2.84;100.00;98410.63;5111834;28;20206;-69
2022/02/01 03:15:55;;;;;;;12.10;3.50;;;;;;;2.79;100.00;98407.31;5106755;28;20234;-68
2022/02/01 03:21:06;;;;;;;15.33;3.17;;;;;;;2.77;100.00;98424.81;5091205;28;20217;-68
2022/02/01 03:23:32;;;;;;;9.67;2.67;;;;;;;2.63;100.00;98421.78;5107077;28;20236;-69
2022/02/01 03:26:00;;;;;;;12.27;3.27;;;;;;;2.54;100.00;98419.50;5102108;28;20214;-70
2022/02/01 03:28:26;;;;;;;11.10;3.23;;;;;;;2.43;100.00;98429.41;5103439;28;20221;-67
2022/02/01 03:30:53;;;;;;;12.37;2.83;;;;;;;2.48;100.00;98424.03;5098918;28;20225;-66
2022/02/01 03:33:19;;;;;;;13.47;3.30;;;;;;;2.49;100.00;98433.56;5107402;28;20218;-66
2022/02/01 03:35:46;;;;;;;12.77;3.70;;;;;;;2.49;100.00;98429.22;5104097;28;20218;-67
2022/02/01 03:38:12;;;;;;;12.77;3.30;;;;;;;2.57;100.00;98437.63;5103535;28;20214;-66
2022/02/01 03:40:39;;;;;;;11.17;3.13;;;;;;;2.51;100.00;98432.63;5106770;28;20214;-67
2022/02/01 03:43:07;;;;;;;12.67;3.50;;;;;;;2.49;100.00;98433.56;5107171;28;20307;-67
2022/02/01 03:45:33;;;;;;;10.73;2.93;;;;;;;2.46;100.00;98439.72;5103859;28;20225;-67
2022/02/01 03:48:00;;;;;;;10.07;3.53;;;;;;;2.47;100.00;98446.69;5098742;28;20677;-67
2022/02/01 03:50:26;;;;;;;9.80;2.90;;;;;;;2.45;100.00;98439.81;5105287;28;20217;-67
2022/02/01 03:52:53;;;;;;;15.73;3.80;;;;;;;2.47;100.00;98446.69;5106371;28;20210;-67
2022/02/01 03:55:20;;;;;;;11.83;2.87;;;;;;;2.50;100.00;98441.34;5104323;28;20206;-68
2022/02/01 03:57:46;;;;;;;13.87;3.07;;;;;;;2.49;100.00;98439.66;5102749;28;20207;-68
2022/02/01 04:00:16;;;;;;;11.30;3.17;;;;;;;2.54;100.00;98442.97;5105206;28;20695;-68
2022/02/01 04:02:43;;;;;;;10.40;2.80;;;;;;;2.59;100.00;98446.28;5106344;28;20238;-68
2022/02/01 04:05:09;;;;;;;15.00;3.10;;;;;;;2.70;100.00;98465.03;5104464;28;20209;-67
2022/02/01 04:07:36;;;;;;;8.83;2.87;;;;;;;2.76;100.00;98477.88;5101719;28;20230;-67
2022/02/01 04:10:03;;;;;;;10.17;3.00;;;;;;;2.81;100.00;98478.59;5104955;28;20588;-67
2022/02/01 04:12:30;;;;;;;11.23;3.13;;;;;;;2.79;100.00;98483.00;5106186;28;20206;-67
2022/02/01 04:14:58;;;;;;;12.67;2.77;;;;;;;2.83;100.00;98500.28;5104331;28;20688;-67
2022/02/01 04:17:26;;;;;;;10.17;2.80;;;;;;;2.84;100.00;98493.28;5101330;28;20264;-67
2022/02/01 04:19:52;;;;;;;12.23;2.60;;;;;;;2.85;100.00;98495.84;5104572;28;20211;-68
2022/02/01 04:22:19;;;;;;;11.13;2.63;;;;;;;2.83;100.00;98499.41;5106425;28;20214;-68
2022/02/01 04:24:46;;;;;;;9.83;2.33;;;;;;;2.82;100.00;98501.16;5104597;28;20249;-68
2022/02/01 04:27:26;;;;;;;10.90;3.03;;;;;;;2.86;100.00;98513.22;5102573;28;20211;-68
2022/02/01 04:30:03;;;;;;;14.70;2.83;;;;;;;2.87;100.00;98511.47;5106264;28;20214;-68
2022/02/01 04:32:30;;;;;;;13.97;2.30;;;;;;;2.80;100.00;98508.19;5105315;28;20214;-68
2022/02/01 04:34:59;;;;;;;11.80;2.93;;;;;;;2.79;100.00;98522.16;5101955;28;20214;-68
2022/02/01 04:37:26;;;;;;;10.80;3.00;;;;;;;2.85;100.00;98508.91;5103532;28;20214;-68
2022/02/01 04:39:53;;;;;;;14.33;3.47;;;;;;;2.76;100.00;98516.19;5106159;28;20217;-68
2022/02/01 04:42:19;;;;;;;14.87;3.13;;;;;;;2.77;100.00;98505.72;5105223;28;20222;-69
2022/02/01 04:44:46;;;;;;;11.60;2.67;;;;;;;2.79;99.58;98516.94;5100464;28;20238;-68
2022/02/01 04:47:12;;;;;;;10.17;2.70;;;;;;;2.73;100.00;98518.88;5102694;28;20214;-69
2022/02/01 04:49:40;;;;;;;14.67;3.23;;;;;;;2.77;100.00;98517.88;5105847;28;20629;-69
2022/02/01 04:52:07;;;;;;;7.53;2.40;;;;;;;2.75;100.00;98527.53;5105432;28;20583;-69
2022/02/01 04:54:34;;;;;;;14.27;2.40;;;;;;;2.81;100.00;98536.00;5101750;28;20217;-69
2022/02/01 04:57:00;;;;;;;9.83;3.10;;;;;;;2.79;100.00;98529.13;5102528;28;20210;-69
2022/02/01 04:59:27;;;;;;;12.10;2.80;;;;;;;2.76;100.00;98534.47;5105775;28;20233;-69
2022/02/01 05:01:53;;;;;;;8.70;2.77;;;;;;;2.77;100.00;98523.09;5103417;28;20227;-69
2022/02/01 05:04:20;;;;;;;13.73;2.60;;;;;;;2.78;100.00;98540.47;5096688;28;20245;-69
2022/02/01 05:06:49;;;;;;;10.03;2.97;;;;;;;2.70;100.00;98548.53;5101867;28;20240;-69
2022/02/01 05:09:15;;;;;;;11.10;2.10;;;;;;;2.74;100.00;98544.94;5088071;28;20219;-69
2022/02/01 05:11:42;;;;;;;9.63;2.50;;;;;;;2.73;100.00;98540.63;5105034;28;20679;-70
2022/02/01 05:14:13;;;;;;;9.60;2.63;;;;;;;2.80;100.00;98560.41;5104944;28;20218;-70
2022/02/01 05:16:57;;;;;;;6.90;2.17;;;;;;;2.83;100.00;98562.94;5102062;28;20238;-69
2022/02/01 05:19:35;;;;;;;7.87;1.90;;;;;;;2.85;100.00;98560.25;5105213;28;20237;-69
2022/02/01 05:22:07;;;;;;;8.00;2.33;;;;;;;2.80;100.00;98557.78;5101397;28;20267;-69
2022/02/01 05:24:37;;;;;;;7.30;2.20;;;;;;;2.82;100.00;98576.84;5102273;28;20281;-69
2022/02/01 05:27:06;;;;;;;9.27;1.97;;;;;;;2.78;100.00;98584.84;5105460;28;20293;-69
2022/02/01 05:29:33;;;;;;;8.13;2.00;;;;;;;2.74;100.00;98586.69;5104350;28;20214;-69
2022/02/01 05:32:04;;;;;;;8.77;1.93;;;;;;;2.63;100.00;98600.97;5101327;28;20222;-69
2022/02/01 05:34:31;;;;;;;9.80;2.50;;;;;;;2.63;99.21;98594.00;5103254;28;20218;-69
2022/02/01 05:36:57;;;;;;;6.63;1.90;;;;;;;2.66;99.36;98593.91;5103692;28;20236;-69
2022/02/01 05:39:27;;;;;;;9.27;3.03;;;;;;;2.64;97.21;98610.50;5104207;28;20237;-69
2022/02/01 05:41:56;;;;;;;16.00;2.67;;;;;;;2.60;97.41;98604.53;5101486;28;20236;-69
2022/02/01 05:44:23;;;;;;;9.00;1.80;;;;;;;2.66;98.01;98606.97;5102978;28;20292;-69
2022/02/01 05:46:49;;;;;;;9.27;1.97;;;;;;;2.61;100.00;98598.41;5105225;28;20221;-69
2022/02/01 05:49:17;;;;;;;8.30;2.13;;;;;;;2.59;100.00;98596.75;5103792;28;20222;-69
2022/02/01 05:51:48;;;;;;;9.37;2.70;;;;;;;2.57;100.00;98586.34;5101390;28;20211;-69
2022/02/01 05:54:15;;;;;;;7.97;2.10;;;;;;;2.66;100.00;98588.69;5103584;28;20210;-69
2022/02/01 05:56:43;;;;;;;8.40;2.10;;;;;;;2.66;100.00;98573.03;5104996;28;20210;-69
2022/02/01 05:59:09;;;;;;;11.20;1.90;;;;;;;2.76;100.00;98581.44;5103328;28;20219;-69
2022/02/01 06:01:36;;;;;;;9.00;2.90;;;;;;;2.66;100.00;98582.59;5099555;28;20218;-69
2022/02/01 06:04:02;;;;;;;8.83;1.90;;;;;;;2.64;100.00;98590.47;5103070;28;20242;-69
2022/02/01 06:06:29;;;;;;;7.67;2.00;;;;;;;2.70;100.00;98579.84;5105089;28;20262;-69
2022/02/01 06:08:55;;;;;;;12.50;3.27;;;;;;;2.72;100.00;98588.50;5103604;28;20210;-69
2022/02/01 06:11:21;;;;;;;11.07;2.50;;;;;;;2.73;100.00;98597.16;5101129;28;20222;-69
2022/02/01 06:13:49;;;;;;;8.07;3.03;;;;;;;2.71;100.00;98597.25;5102239;28;20206;-69
2022/02/01 06:16:16;;;;;;;10.13;2.20;;;;;;;2.72;100.00;98591.13;5105089;28;20241;-69
2022/02/01 06:18:42;;;;;;;8.33;2.47;;;;;;;2.65;100.00;98580.91;5103661;28;20214;-69
2022/02/01 06:21:09;;;;;;;8.40;1.97;;;;;;;2.66;100.00;98600.88;5100891;28;20210;-69
2022/02/01 06:23:35;;;;;;;8.03;2.00;;;;;;;2.67;100.00;98611.28;5101821;28;20238;-69
2022/02/01 06:26:01;;;;;;;10.50;2.70;;;;;;;2.63;100.00;98607.03;5104946;28;20210;-69
2022/02/01 06:28:29;;;;;;;8.40;2.30;;;;;;;2.60;100.00;98620.19;5103005;28;20214;-69
2022/02/01 06:30:57;;;;;;;10.67;2.27;;;;;;;2.61;100.00;98616.69;5102526;28;20215;-70
2022/02/01 06:33:24;;;;;;;10.50;2.73;;;;;;;2.61;100.00;98614.06;5105322;28;20214;-69
2022/02/01 06:35:52;;;;;;;8.50;2.27;;;;;;;2.65;100.00;98610.47;5108481;28;20591;-69
2022/02/01 06:38:18;;;;;;;9.63;2.23;;;;;;;2.64;100.00;98619.19;5108229;28;20210;-69
2022/02/01 06:40:46;;;;;;;5.73;2.50;;;;;;;2.61;100.00;98624.50;5104641;28;20221;-70
2022/02/01 06:43:13;;;;;;;9.20;2.00;;;;;;;2.58;100.00;98627.19;5104852;28;20246;-70
2022/02/01 06:45:40;;;;;;;6.23;2.30;;;;;;;2.57;100.00;98635.91;5108268;28;20214;-70
2022/02/01 06:48:08;;;;;;;8.60;3.07;;;;;;;2.53;100.00;98626.50;5107901;28;20218;-69
2022/02/01 06:50:35;;;;;;;7.53;1.80;;;;;;;2.47;100.00;98641.47;5104392;28;20221;-69
2022/02/01 06:53:03;;;;;;;12.37;2.80;;;;;;;2.46;100.00;98643.19;5104472;28;20221;-69
2022/02/01 06:55:43;;;;;;;13.17;3.03;;;;;;;2.35;100.00;98647.91;5106984;28;20582;-68
2022/02/01 06:58:11;;;;;;;10.40;2.50;;;;;;;2.37;100.00;98640.88;5105947;28;20209;-68
2022/02/01 07:00:38;;;;;;;8.20;2.23;;;;;;;2.29;100.00;98642.84;5104044;28;20289;-70
2022/02/01 07:03:04;;;;;;;8.77;2.50;;;;;;;2.20;100.00;98663.97;5106347;28;20213;-69
2022/02/01 07:05:32;;;;;;;9.67;2.10;;;;;;;2.24;100.00;98678.63;5107906;28;20237;-69
2022/02/01 07:07:58;;;;;;;7.50;2.43;;;;;;;2.25;100.00;98685.56;5106188;28;20575;-69
2022/02/01 07:10:25;;;;;;;6.07;2.00;;;;;;;2.31;100.00;98685.38;5104073;28;20222;-69
2022/02/01 07:12:51;;;;;;;9.57;2.83;;;;;;;2.29;100.00;98688.94;5108705;28;20202;-69
2022/02/01 07:15:18;;;;;;;12.73;2.63;;;;;;;2.37;100.00;98706.09;5107768;28;20245;-69
2022/02/01 07:17:48;;;;;;;6.07;2.10;;;;;;;2.37;100.00;98713.91;5106364;28;20210;-69
2022/02/01 07:20:16;;;;;;;9.40;2.20;;;;;;;2.37;100.00;98700.00;5102037;28;20229;-69
2022/02/01 07:22:46;;;;;;;8.57;2.27;;;;;;;2.43;100.00;98681.56;5105242;28;20224;-69
2022/02/01 07:25:17;;;;;;;11.50;2.70;;;;;;;2.36;100.00;98683.50;5107483;28;20242;-69
2022/02/01 07:27:47;;;;;;;11.33;2.37;;;;;;;2.40;100.00;98679.91;5105037;28;20271;-69
2022/02/01 07:30:18;;;;;;;7.33;2.33;;;;;;;2.38;100.00;98684.31;5099096;28;20206;-69
2022/02/01 07:32:45;;;;;;;8.60;2.20;;;;;;;2.34;100.00;98685.28;5102083;28;20232;-69
2022/02/01 07:35:11;;;;;;;7.83;2.20;;;;;;;2.35;100.00;98681.81;5107512;28;20206;-69
2022/02/01 07:37:38;;;;;;;10.37;2.40;;;;;;;2.46;100.00;98665.84;5104297;28;20214;-69
2022/02/01 07:40:08;;;;;;;6.87;2.57;;;;;;;2.44;100.00;98660.66;5103550;28;20587;-69
2022/02/01 07:42:34;;;;;;;11.37;2.63;;;;;;;2.44;99.09;98671.09;5106834;28;20220;-69
2022/02/01 07:45:03;;;;;;;10.33;2.20;;;;;;;2.48;100.00;98677.09;5107114;28;20698;-69
2022/02/01 07:47:30;;;;;;;9.33;2.50;;;;;;;2.49;99.78;98677.03;5102144;28;20689;-69
2022/02/01 07:49:56;;;;;;;6.87;2.70;;;;;;;2.55;99.53;98684.69;5103213;28;20234;-69
2022/02/01 07:52:23;;;;;;;9.67;3.20;;;;;;;2.57;98.91;98669.00;5106293;28;20210;-69
2022/02/01 07:54:49;;;;;;;7.93;2.30;;;;;;;2.62;97.71;98675.78;5106909;28;20218;-69
2022/02/01 07:57:17;;;;;;;11.57;2.57;;;;;;;2.64;98.83;98673.97;5103999;28;20236;-69
2022/02/01 07:59:44;;;;;;;9.30;1.80;;;;;;;2.74;98.72;98670.22;5103077;28;20222;-69
2022/02/01 08:02:18;;;;;;;7.27;1.73;;;;;;;2.74;97.84;98669.34;5105996;28;20592;-69
2022/02/01 08:04:45;;;;;;;7.70;2.13;;;;;;;2.80;96.75;98663.94;5099436;28;20247;-69
2022/02/01 08:07:11;;;;;;;5.87;2.73;;;;;;;2.84;96.36;98679.47;5087105;28;20218;-71
2022/02/01 08:09:41;;;;;;;5.60;2.00;;;;;;;2.86;97.53;98682.91;5095428;28;20664;-71
2022/02/01 08:12:17;;;;;;;9.10;2.77;;;;;;;2.98;96.35;98685.13;5083784;28;20219;-71
2022/02/01 08:17:30;;;;;;;8.20;2.10;;;;;;;3.10;93.56;98673.44;5063123;28;20215;-73
2022/02/01 08:20:00;;;;;;;7.53;1.97;;;;;;;3.19;93.63;98675.78;5080938;28;20217;-72
2022/02/01 08:22:36;;;;;;;8.87;2.93;;;;;;;3.18;94.13;98681.91;5072624;28;20212;-70
2022/02/01 08:25:03;;;;;;;6.63;2.10;;;;;;;3.18;93.88;98682.75;5076234;28;20277;-70
2022/02/01 08:27:31;;;;;;;7.10;1.70;;;;;;;3.30;94.26;98686.75;5077275;28;20251;-69
2022/02/01 08:29:59;;;;;;;7.67;2.10;;;;;;;3.30;93.84;98697.22;5076970;28;20206;-70
2022/02/01 08:32:25;;;;;;;7.53;2.30;;;;;;;3.35;94.49;98693.53;5076015;28;20589;-71
2022/02/01 08:34:52;;;;;;;6.90;2.57;;;;;;;3.45;94.60;98696.72;5076150;28;20270;-69
2022/02/01 08:37:19;;;;;;;6.10;2.33;;;;;;;3.46;93.26;98708.84;5075525;28;20222;-69
2022/02/01 08:39:46;;;;;;;7.27;1.90;;;;;;;3.50;93.48;98716.56;5077122;28;20218;-69
2022/02/01 08:42:12;;;;;;;5.07;2.50;;;;;;;3.57;93.53;98714.59;5076036;28;20712;-71
2022/02/01 08:44:39;;;;;;;5.73;2.20;;;;;;;3.65;94.24;98716.06;5074080;28;20243;-71
2022/02/01 08:47:08;;;;;;;10.27;2.63;;;;;;;3.59;93.40;98710.16;5076304;28;20712;-70
2022/02/01 08:49:35;;;;;;;5.80;2.20;;;;;;;3.63;93.00;98699.59;5079236;28;20615;-72
2022/02/01 08:52:04;;;;;;;10.33;2.37;;;;;;;3.64;93.55;98698.69;5073933;28;20218;-69
2022/02/01 08:54:33;;;;;;;6.93;2.23;;;;;;;3.66;94.15;98689.03;5075666;28;20298;-70
2022/02/01 08:59:46;;;;;;;7.20;2.37;;;;;;;3.72;92.54;98712.34;5073776;28;20272;-69
2022/02/01 09:02:16;;;;;;;8.43;2.87;;;;;;;3.75;92.50;98695.72;5074631;28;20215;-69
2022/02/01 09:04:43;;;;;;;6.73;2.20;;;;;;;3.80;92.91;98699.03;5072315;28;20235;-70
2022/02/01 09:07:10;;;;;;;6.20;2.60;;;;;;;3.91;93.14;98694.31;5073246;28;20237;-69
2022/02/01 09:09:38;;;;;;;6.37;2.27;;;;;;;4.05;92.47;98695.53;5074600;28;20221;-69
2022/02/01 09:12:05;;;;;;;7.10;2.30;;;;;;;4.05;91.04;98692.94;5079547;28;20208;-70
2022/02/01 09:14:32;;;;;;;4.80;2.43;;;;;;;4.27;91.30;98701.72;5084275;28;20212;-70
2022/02/01 09:17:00;;;;;;;7.33;2.30;;;;;;;4.18;90.72;98702.06;5091172;28;20578;-69
2022/02/01 09:19:28;;;;;;;6.73;2.43;;;;;;;4.18;91.93;98696.81;5081927;28;20297;-69
2022/02/01 09:21:55;;;;;;;5.70;2.30;;;;;;;4.21;90.53;98698.47;5079877;28;20224;-69
2022/02/01 09:24:22;;;;;;;8.47;2.43;;;;;;;4.18;92.06;98693.34;5079728;28;20240;-69
2022/02/01 09:26:48;;;;;;;6.97;2.30;;;;;;;4.16;91.26;98677.69;5083901;28;20223;-69
2022/02/01 09:29:14;;;;;;;6.20;2.07;;;;;;;4.07;90.55;98690.22;5093364;28;20218;-69
2022/02/01 09:31:41;;;;;;;5.47;2.20;;;;;;;4.05;91.75;98687.69;5093010;28;20234;-69
2022/02/01 09:34:08;;;;;;;6.03;2.13;;;;;;;4.00;91.97;98681.75;5091389;28;20214;-70
2022/02/01 09:36:36;;;;;;;6.17;2.10;;;;;;;4.12;91.71;98690.94;5094394;28;20213;-70
2022/02/01 09:39:05;;;;;;;6.93;2.10;;;;;;;4.14;90.81;98683.88;5093343;28;20222;-70
2022/02/01 09:41:33;;;;;;;6.90;2.53;;;;;;;4.24;90.97;98670.44;5093439;28;20216;-70
2022/02/01 09:43:59;;;;;;;6.13;2.20;;;;;;;4.19;89.09;98656.66;5093752;28;20207;-70
2022/02/01 09:46:26;;;;;;;6.13;2.73;;;;;;;4.23;90.11;98650.41;5094149;28;20597;-70
2022/02/01 09:48:53;;;;;;;6.53;2.13;;;;;;;4.25;90.31;98661.69;5093596;28;20218;-69
2022/02/01 09:51:19;;;;;;;7.07;2.13;;;;;;;4.40;90.64;98661.13;5093720;28;20215;-70
2022/02/01 09:53:47;;;;;;;6.30;2.20;;;;;;;4.47;89.36;98662.59;5093677;28;20211;-69
2022/02/01 09:56:15;;;;;;;4.23;2.40;;;;;;;4.50;90.30;98657.25;5094369;28;20226;-70
2022/02/01 09:58:43;;;;;;;6.93;2.07;;;;;;;4.39;89.52;98648.94;5091888;28;20635;-69
2022/02/01 10:01:18;;;;;;;4.50;2.10;;;;;;;4.22;88.03;98667.00;5093416;28;20293;-70
2022/02/01 10:03:46;;;;;;;8.27;1.80;;;;;;;4.27;88.58;98675.56;5093416;28;20599;-70
2022/02/01 10:06:15;;;;;;;8.47;2.00;;;;;;;4.28;90.43;98677.25;5088928;28;20276;-69
2022/02/01 10:08:46;;;;;;;4.77;1.80;;;;;;;4.36;89.82;98677.84;5081920;28;20258;-69
2022/02/01 10:11:14;;;;;;;6.67;2.07;;;;;;;4.34;88.35;98665.72;5082063;28;20219;-70
2022/02/01 10:13:44;;;;;;;5.47;2.20;;;;;;;4.41;87.83;98664.59;5093987;28;20213;-71
2022/02/01 10:16:16;;;;;;;6.20;1.80;;;;;;;4.45;86.75;98655.75;5085713;28;20243;-71
2022/02/01 10:18:42;;;;;;;6.97;1.93;;;;;;;4.52;86.00;98651.97;5085672;28;20234;-71
2022/02/01 10:21:11;;;;;;;6.40;1.60;;;;;;;4.61;84.86;98641.16;5095687;28;20242;-71
2022/02/01 10:23:40;;;;;;;4.93;1.57;;;;;;;4.67;87.16;98636.56;5092160;28;20459;-70
2022/02/01 10:26:08;;;;;;;8.60;1.80;;;;;;;4.71;86.65;98629.44;5079565;28;20712;-69
2022/02/01 10:28:42;;;;;;;7.27;2.00;;;;;;;4.88;85.37;98630.47;5084600;28;20666;-68
2022/02/01 10:31:14;;;;;;;5.30;1.80;;;;;;;5.02;83.09;98638.66;5107450;28;20668;-69
2022/02/01 10:36:35;;;;;;;4.03;1.50;;;;;;;5.14;82.91;98627.69;5094566;28;20214;-72
2022/02/01 10:39:02;;;;;;;6.93;2.90;;;;;;;5.21;81.91;98639.66;5093329;28;20216;-71
2022/02/01 10:41:29;;;;;;;4.20;1.93;;;;;;;5.22;81.38;98643.97;5095097;28;20215;-72
2022/02/01 10:43:57;;;;;;;11.80;2.40;;;;;;;5.14;80.44;98661.75;5106882;28;20225;-70
2022/02/01 10:46:25;;;;;;;6.43;1.90;;;;;;;5.00;78.37;98656.19;5092933;28;20409;-72
2022/02/01 10:48:53;;;;;;;5.73;1.67;;;;;;;5.05;80.26;98641.16;5095135;28;20216;-71
2022/02/01 10:51:21;;;;;;;5.50;1.60;;;;;;;4.96;78.04;98622.34;5095188;28;20255;-70
2022/02/01 10:53:48;;;;;;;4.97;1.47;;;;;;;4.83;78.40;98648.13;5091543;28;20221;-71
2022/02/01 10:56:17;;;;;;;7.73;1.73;;;;;;;4.79;78.04;98643.94;5094462;28;20215;-72
2022/02/01 10:58:44;;;;;;;3.83;1.43;;;;;;;4.82;78.00;98641.19;5094261;28;20215;-71
2022/02/01 11:01:13;;;;;;;5.90;2.03;;;;;;;4.75;79.68;98629.25;5093561;28;20216;-71
2022/02/01 11:03:42;;;;;;;7.97;1.60;;;;;;;4.89;79.21;98618.25;5094796;28;20214;-72
2022/02/01 11:06:10;;;;;;;5.07;1.60;;;;;;;4.88;78.79;98604.28;5088867;28;20236;-69
2022/02/01 11:08:39;;;;;;;3.27;1.53;;;;;;;4.81;78.40;98589.75;5087117;28;20212;-70
2022/02/01 11:11:06;;;;;;;3.77;1.37;;;;;;;4.68;78.68;98578.03;5090036;28;20251;-70
2022/02/01 11:13:37;;;;;;;6.60;1.90;;;;;;;4.64;78.26;98565.97;5095103;28;20210;-70
2022/02/01 11:16:06;;;;;;;7.83;1.87;;;;;;;4.62;78.78;98567.81;5089235;28;20245;-70
2022/02/01 11:18:35;;;;;;;3.47;1.73;;;;;;;4.54;79.73;98558.53;5086910;28;20209;-70
2022/02/01 11:21:12;;;;;;;4.67;1.67;;;;;;;4.53;80.79;98536.72;5083236;28;20302;-71
2022/02/01 11:23:47;;;;;;;4.60;1.70;;;;;;;4.56;79.73;98535.75;5089690;28;20747;-70
2022/02/01 11:26:22;;;;;;;4.37;1.63;;;;;;;4.58;79.60;98524.31;5094032;28;20244;-70
2022/02/01 11:29:14;;;;;;;3.93;1.53;;;;;;;4.62;79.53;98533.78;5094287;28;20623;-70
2022/02/01 11:31:46;;;;;;;7.70;1.63;;;;;;;4.69;78.61;98506.44;5093920;28;20650;-70
2022/02/01 11:34:19;;;;;;;3.83;1.80;;;;;;;4.79;78.54;98497.31;5094357;28;20222;-70
2022/02/01 11:36:46;;;;;;;5.03;1.97;;;;;;;4.82;80.07;98504.19;5078572;28;20211;-70
2022/02/01 11:39:14;;;;;;;8.23;1.90;;;;;;;4.90;80.61;98505.56;5094059;28;20215;-71
2022/02/01 11:41:43;;;;;;;5.40;2.03;;;;;;;4.94;80.54;98501.06;5083144;28;20262;-72
2022/02/01 11:44:12;;;;;;;3.03;1.43;;;;;;;4.90;81.48;98499.47;5091368;28;20220;-71
2022/02/01 11:46:39;;;;;;;5.50;1.47;;;;;;;4.88;80.97;98490.84;5092374;28;20235;-71
2022/02/01 11:49:07;;;;;;;5.53;1.57;;;;;;;4.86;82.17;98490.91;5093900;28;20207;-71
2022/02/01 11:51:35;;;;;;;4.03;1.47;;;;;;;4.87;82.15;98484.75;5093943;28;20577;-71
2022/02/01 11:54:03;;;;;;;3.43;1.43;;;;;;;4.76;82.15;98473.84;5094189;28;20211;-71
2022/02/01 11:56:33;;;;;;;5.07;1.30;;;;;;;4.69;83.15;98480.25;5088720;28;20553;-71
2022/02/01 11:59:03;;;;;;;1.87;1.10;;;;;;;4.79;84.17;98465.03;5074346;28;20212;-71
2022/02/01 12:01:34;;;;;;;6.80;1.97;;;;;;;4.92;84.38;98455.75;5074109;28;20788;-71
2022/02/01 12:04:03;;;;;;;5.73;1.40;;;;;;;4.83;82.03;98449.13;5075689;28;20234;-71
2022/02/01 12:06:41;;;;;;;3.63;1.30;;;;;;;4.72;83.42;98422.56;5074094;28;20239;-70
2022/02/01 12:09:11;;;;;;;6.90;1.80;;;;;;;4.71;83.35;98420.00;5073909;28;20211;-70
2022/02/01 12:11:39;;;;;;;3.83;1.50;;;;;;;4.83;83.94;98415.06;5074708;28;20704;-70
2022/02/01 12:14:05;;;;;;;5.40;2.00;;;;;;;4.98;83.90;98409.19;5093892;28;20220;-70
2022/02/01 12:16:32;;;;;;;2.13;1.30;;;;;;;4.97;83.29;98401.41;5074140;28;20248;-71
2022/02/01 12:19:04;;;;;;;4.70;1.53;;;;;;;4.84;83.43;98408.91;5074152;28;20216;-71
2022/02/01 12:21:38;;;;;;;3.80;1.53;;;;;;;4.75;84.55;98417.16;5075392;28;20216;-71
2022/02/01 12:24:06;;;;;;;3.27;1.23;;;;;;;4.52;85.65;98406.78;5074154;28;20222;-71
2022/02/01 12:26:34;;;;;;;1.97;1.03;;;;;;;4.54;86.02;98404.97;5073439;28;20244;-71
2022/02/01 12:29:05;;;;;;;3.50;1.40;;;;;;;4.57;86.08;98397.00;5073031;28;20312;-70
2022/02/01 12:31:34;;;;;;;5.23;1.50;;;;;;;4.61;85.20;98387.25;5074829;28;20212;-70
2022/02/01 12:34:03;;;;;;;4.13;1.60;;;;;;;4.67;84.75;98373.91;5073476;28;20506;-70
2022/02/01 12:36:36;;;;;;;3.17;1.33;;;;;;;4.63;84.21;98361.84;5073524;28;20223;-70
2022/02/01 12:39:11;;;;;;;3.43;1.40;;;;;;;4.72;84.57;98353.63;5073991;28;20570;-70
2022/02/01 12:41:43;;;;;;;3.27;1.40;;;;;;;4.79;85.02;98344.56;5087395;28;20215;-71
2022/02/01 12:46:58;;;;;;;4.17;1.40;;;;;;;4.84;83.63;98332.97;5073253;28;20366;-70
2022/02/01 12:49:35;;;;;;;2.17;1.30;;;;;;;4.92;83.97;98325.66;5074015;28;20224;-71